createdAt,value
2022-12-27T00:00:46.499Z,4.51
2022-12-27T00:05:46.398Z,4.51
2022-12-27T00:10:46.324Z,4.62
2022-12-27T00:15:46.272Z,4.78
2022-12-27T00:20:46.247Z,4.69
2022-12-27T00:25:46.173Z,4.73
2022-12-27T00:30:46.092Z,4.72
2022-12-27T00:35:46.104Z,4.69
2022-12-27T00:40:46.036Z,4.67
2022-12-27T00:45:46.037Z,4.75
2022-12-27T00:50:45.884Z,4.70
2022-12-27T00:55:46.049Z,4.91
2022-12-27T01:00:46.090Z,4.78
2022-12-27T01:05:45.856Z,4.80
2022-12-27T01:10:45.747Z,4.73
2022-12-27T01:15:55.593Z,4.94
2022-12-27T01:20:45.607Z,4.73
2022-12-27T01:25:45.586Z,4.77
2022-12-27T01:30:45.518Z,4.70
2022-12-27T01:35:45.450Z,4.78
2022-12-27T01:40:45.369Z,4.73
2022-12-27T01:45:45.403Z,4.91
2022-12-27T01:50:45.259Z,4.92
2022-12-27T01:55:45.237Z,4.92
2022-12-27T02:00:45.313Z,4.73
2022-12-27T02:05:45.162Z,4.99
2022-12-27T02:10:45.039Z,4.80
2022-12-27T02:15:45.093Z,4.92
2022-12-27T02:20:44.969Z,4.78
2022-12-27T02:25:44.916Z,4.82
2022-12-27T02:30:44.884Z,4.69
2022-12-27T02:35:44.794Z,4.65
2022-12-27T02:40:44.740Z,4.69
2022-12-27T02:45:44.895Z,4.62
2022-12-27T02:50:44.927Z,4.78
2022-12-27T02:55:44.880Z,4.69
2022-12-27T03:00:44.577Z,4.59
2022-12-27T03:05:44.538Z,4.66
2022-12-27T03:10:44.489Z,4.84
2022-12-27T03:15:44.346Z,4.85
2022-12-27T03:20:44.345Z,4.82
2022-12-27T03:25:44.323Z,4.75
2022-12-27T03:30:44.226Z,4.88
2022-12-27T03:35:44.210Z,4.88
2022-12-27T03:40:44.173Z,4.78
2022-12-27T03:45:44.037Z,4.92
2022-12-27T03:50:43.995Z,4.89
2022-12-27T03:55:43.958Z,4.92
2022-12-27T04:00:43.901Z,4.99
2022-12-27T04:05:43.833Z,4.99
2022-12-27T04:10:43.797Z,4.99
2022-12-27T04:15:43.842Z,5.09
2022-12-27T04:20:43.669Z,5.06
2022-12-27T04:25:43.698Z,5.15
2022-12-27T04:30:43.541Z,5.13
2022-12-27T04:35:43.549Z,5.24
2022-12-27T04:40:43.485Z,5.28
2022-12-27T04:45:43.432Z,5.31
2022-12-27T04:50:43.502Z,5.49
2022-12-27T04:55:43.396Z,5.51
2022-12-27T05:00:43.219Z,5.56
2022-12-27T05:05:43.260Z,5.74
2022-12-27T05:10:43.182Z,5.60
2022-12-27T05:15:43.243Z,5.60
2022-12-27T05:20:43.072Z,5.60
2022-12-27T05:25:43.025Z,5.74
2022-12-27T05:30:42.913Z,5.65
2022-12-27T05:35:42.939Z,5.76
2022-12-27T05:40:42.841Z,5.99
2022-12-27T05:45:42.737Z,5.99
2022-12-27T05:50:42.784Z,6.17
2022-12-27T05:55:42.692Z,6.08
2022-12-27T06:00:42.641Z,6.14
2022-12-27T06:05:42.535Z,6.15
2022-12-27T06:10:42.576Z,6.19
2022-12-27T06:15:42.442Z,6.14
2022-12-27T06:20:42.604Z,6.19
2022-12-27T06:25:42.625Z,6.14
2022-12-27T06:30:42.321Z,6.22
2022-12-27T06:35:42.465Z,6.09
2022-12-27T06:40:42.210Z,6.12
2022-12-27T06:45:42.196Z,6.09
2022-12-27T06:50:42.051Z,6.06
2022-12-27T06:55:42.056Z,6.21
2022-12-27T07:00:41.959Z,6.19
2022-12-27T07:05:41.983Z,6.12
2022-12-27T07:10:41.978Z,6.00
2022-12-27T07:16:52.293Z,6.09
2022-12-27T07:21:52.095Z,5.86
2022-12-27T07:26:52.062Z,5.99
2022-12-27T07:31:52.252Z,5.81
2022-12-27T07:36:51.951Z,5.68
2022-12-27T07:41:52.049Z,5.74
2022-12-27T07:46:52.052Z,5.78
2022-12-27T07:51:51.755Z,5.67
2022-12-27T07:56:51.781Z,5.63
2022-12-27T08:01:51.759Z,5.51
2022-12-27T08:06:51.768Z,5.51
2022-12-27T08:11:51.602Z,5.58
2022-12-27T08:16:51.704Z,5.49
2022-12-27T08:21:51.456Z,5.63
2022-12-27T08:26:51.505Z,5.58
2022-12-27T08:31:51.346Z,5.65
2022-12-27T08:36:56.007Z,5.57
2022-12-27T08:41:52.250Z,5.58
2022-12-27T08:46:51.312Z,5.63
2022-12-27T08:51:51.372Z,5.74
2022-12-27T08:56:52.389Z,5.76
2022-12-27T09:01:51.292Z,5.82
2022-12-27T09:06:51.271Z,5.81
2022-12-27T09:11:50.965Z,5.85
2022-12-27T09:16:51.178Z,5.86
2022-12-27T09:21:51.108Z,5.89
2022-12-27T09:26:50.969Z,5.96
2022-12-27T09:31:51.915Z,5.97
2022-12-27T09:36:50.779Z,6.19
2022-12-27T09:46:51.791Z,6.46
2022-12-27T09:51:50.662Z,6.66
2022-12-27T10:01:51.538Z,6.88
2022-12-27T10:06:50.425Z,6.87
2022-12-27T10:11:50.334Z,6.99
2022-12-27T10:16:50.369Z,7.03
2022-12-27T10:21:50.259Z,7.35
2022-12-27T10:26:52.244Z,7.53
2022-12-27T10:31:50.139Z,7.46
2022-12-27T10:36:50.115Z,7.46
2022-12-27T10:41:50.030Z,7.49
2022-12-27T10:46:51.114Z,7.64
2022-12-27T10:51:49.884Z,7.64
2022-12-27T10:56:49.835Z,7.69
2022-12-27T11:01:49.899Z,7.83
2022-12-27T11:06:49.716Z,7.83
2022-12-27T11:11:49.790Z,8.02
2022-12-27T11:16:49.581Z,8.23
2022-12-27T11:21:49.581Z,8.33
2022-12-27T11:26:53.710Z,8.25
2022-12-27T11:31:49.473Z,8.30
2022-12-27T11:36:49.492Z,8.28
2022-12-27T11:41:49.529Z,8.30
2022-12-27T11:46:52.693Z,8.28
2022-12-27T11:51:50.250Z,8.22
2022-12-27T11:56:49.142Z,8.19
2022-12-27T12:01:49.216Z,8.23
2022-12-27T12:06:49.175Z,8.47
2022-12-27T12:11:54.667Z,8.41
2022-12-27T12:16:50.065Z,8.56
2022-12-27T12:21:48.912Z,8.61
2022-12-27T12:26:54.207Z,8.55
2022-12-27T12:31:49.937Z,8.61
2022-12-27T12:36:52.465Z,8.73
2022-12-27T12:41:48.733Z,8.77
2022-12-27T12:46:48.615Z,8.74
2022-12-27T12:51:48.626Z,8.65
2022-12-27T12:56:48.541Z,8.86
2022-12-27T13:01:57.929Z,8.70
2022-12-27T13:06:48.407Z,8.77
2022-12-27T13:11:48.380Z,8.76
2022-12-27T13:16:57.215Z,8.84
2022-12-27T13:21:48.300Z,8.63
2022-12-27T13:26:48.276Z,8.61
2022-12-27T13:31:48.198Z,8.56
2022-12-27T13:36:48.259Z,8.56
2022-12-27T13:41:48.011Z,8.48
2022-12-27T13:46:47.912Z,8.43
2022-12-27T13:51:47.918Z,8.44
2022-12-27T13:56:55.661Z,8.45
2022-12-27T14:01:48.834Z,8.41
2022-12-27T14:06:47.869Z,8.47
2022-12-27T14:11:47.749Z,8.47
2022-12-27T14:16:52.157Z,8.28
2022-12-27T14:21:48.560Z,8.41
2022-12-27T14:26:47.653Z,8.05
2022-12-27T14:31:47.546Z,8.08
2022-12-27T14:36:47.489Z,8.18
2022-12-27T14:41:47.411Z,8.07
2022-12-27T14:46:47.352Z,8.11
2022-12-27T14:52:10.304Z,8.08
2022-12-27T14:56:48.184Z,8.11
2022-12-27T15:01:47.234Z,7.98
2022-12-27T15:06:47.086Z,8.04
2022-12-27T15:11:47.123Z,7.97
2022-12-27T15:16:46.966Z,7.89
2022-12-27T15:21:46.931Z,7.67
2022-12-27T15:26:46.839Z,7.50
2022-12-27T15:31:46.805Z,7.43
2022-12-27T15:36:48.041Z,7.61
2022-12-27T15:41:46.955Z,7.48
2022-12-27T15:46:46.843Z,7.32
2022-12-27T15:51:46.602Z,7.32
2022-12-27T15:56:46.540Z,7.43
2022-12-27T16:01:46.567Z,7.34
2022-12-27T16:06:46.582Z,7.34
2022-12-27T16:11:46.583Z,7.31
2022-12-27T16:16:46.504Z,7.64
2022-12-27T16:21:46.247Z,7.77
2022-12-27T16:26:46.293Z,7.83
2022-12-27T16:31:46.215Z,7.93
2022-12-27T16:36:46.143Z,8.00
2022-12-27T16:41:46.089Z,7.95
2022-12-27T16:46:46.055Z,7.89
2022-12-27T16:51:45.909Z,7.93
2022-12-27T16:56:45.875Z,7.87
2022-12-27T17:01:45.905Z,7.77
2022-12-27T17:06:45.777Z,7.75
2022-12-27T17:11:45.829Z,7.67
2022-12-27T17:16:45.767Z,7.57
2022-12-27T17:21:45.711Z,7.45
2022-12-27T17:26:45.599Z,7.64
2022-12-27T17:31:46.651Z,7.53
2022-12-27T17:36:45.647Z,7.37
2022-12-27T17:41:45.371Z,7.28
2022-12-27T17:46:45.337Z,7.17
2022-12-27T17:51:45.325Z,7.17
2022-12-27T17:56:45.247Z,7.09
2022-12-27T18:01:45.420Z,7.06
2022-12-27T18:06:45.292Z,7.12
2022-12-27T18:11:45.206Z,7.05
2022-12-27T18:16:45.183Z,6.99
2022-12-27T18:21:45.088Z,6.81
2022-12-27T18:26:45.022Z,6.92
2022-12-27T18:31:45.018Z,6.85
2022-12-27T18:36:44.903Z,6.98
2022-12-27T18:41:44.766Z,6.64
2022-12-27T18:46:44.725Z,6.67
2022-12-27T18:51:44.717Z,6.67
2022-12-27T18:56:44.616Z,6.54
2022-12-27T19:01:44.741Z,6.58
2022-12-27T19:06:45.600Z,6.69
2022-12-27T19:11:44.448Z,6.49
2022-12-27T19:16:44.413Z,6.56
2022-12-27T19:21:44.355Z,6.49
2022-12-27T19:26:44.251Z,6.43
2022-12-27T19:31:44.263Z,6.44
2022-12-27T19:36:44.162Z,6.41
2022-12-27T19:41:44.268Z,6.31
2022-12-27T19:46:44.148Z,6.40
2022-12-27T19:51:44.156Z,6.21
2022-12-27T19:56:44.053Z,6.34
2022-12-27T20:01:44.105Z,6.22
2022-12-27T20:06:43.848Z,6.28
2022-12-27T20:11:43.763Z,6.21
2022-12-27T20:16:43.992Z,6.22
2022-12-27T20:21:43.726Z,6.28
2022-12-27T20:26:43.694Z,6.09
2022-12-27T20:31:45.377Z,6.18
2022-12-27T20:36:43.526Z,6.09
2022-12-27T20:41:43.526Z,6.04
2022-12-27T20:46:43.481Z,6.22
2022-12-27T20:51:43.472Z,6.08
2022-12-27T20:56:43.277Z,6.08
2022-12-27T21:01:43.260Z,6.04
2022-12-27T21:06:43.215Z,5.97
2022-12-27T21:11:43.312Z,5.91
2022-12-27T21:16:43.111Z,6.08
2022-12-27T21:21:43.034Z,5.93
2022-12-27T21:26:43.085Z,6.11
2022-12-27T21:31:42.994Z,6.06
2022-12-27T21:36:42.832Z,6.08
2022-12-27T21:41:42.963Z,6.15
2022-12-27T21:46:42.786Z,6.11
2022-12-27T21:51:42.676Z,6.15
2022-12-27T21:56:42.657Z,6.27
2022-12-27T22:01:52.065Z,6.31
2022-12-27T22:06:47.129Z,6.41
2022-12-27T22:11:42.638Z,6.30
2022-12-27T22:16:42.595Z,6.46
2022-12-27T22:21:42.500Z,6.25
2022-12-27T22:26:42.310Z,6.31
2022-12-27T22:31:42.387Z,6.34
2022-12-27T22:36:42.186Z,6.30
2022-12-27T22:41:42.282Z,6.34
2022-12-27T22:47:23.781Z,6.34
2022-12-27T22:51:43.038Z,6.38
2022-12-27T22:56:41.991Z,6.43
2022-12-27T23:01:42.014Z,6.52
2022-12-27T23:06:41.867Z,6.55
2022-12-27T23:11:41.792Z,6.52
2022-12-27T23:16:42.880Z,6.49
2022-12-27T23:21:41.784Z,6.62
2022-12-27T23:26:41.717Z,6.58
2022-12-27T23:31:55.375Z,6.73
2022-12-27T23:36:42.722Z,6.71
2022-12-27T23:41:41.489Z,6.81
2022-12-27T23:46:41.674Z,6.74
2022-12-27T23:51:41.538Z,6.89
2022-12-27T23:56:41.344Z,6.91
